Zeeland, Michigan
Current Conditions -  °F | °C
As of 9:53 AM on Saturday 22 Nov 2014 (Local Time) from KBIV Reporting Station
Haze Haze  
Wind Chill: 32°   Ceiling: 600
Heat Index: 40°   Visibility: 4mi
Dew Point: 37°   Wind: 14mph
Humidity: 89%   Direction: 200°SSW
Pressure: 30.02"   Gusts: NA
Location:  42.81°N, 86.01°W
Report Text: KBIV 221453Z AUTO 20012KT 4SM BR OVC006 04/03 A3002 RMK AO2 RAE43 SLP171 P0001 60011 T00440028 56014
Loading
Personal Weather Stations






























Interactive Weather Map New forecast layout! Learn more

10-Day Weather Forecast

Advertisements
Track Severe Weather on mobile